sensor_id;sensor_type;location;lat;lon;timestamp;P1;durP1;ratioP1;P2;durP2;ratioP2
11034;SDS011;5571;48.110;-1.706;2022-12-07T00:00:02;33.57;;;23.90;;
11034;SDS011;5571;48.110;-1.706;2022-12-07T00:02:28;32.70;;;20.43;;
11034;SDS011;5571;48.110;-1.706;2022-12-07T00:04:54;29.50;;;19.17;;
11034;SDS011;5571;48.110;-1.706;2022-12-07T00:07:19;31.60;;;20.63;;
11034;SDS011;5571;48.110;-1.706;2022-12-07T00:09:45;26.67;;;16.93;;
11034;SDS011;5571;48.110;-1.706;2022-12-07T00:12:11;23.40;;;16.43;;
11034;SDS011;5571;48.110;-1.706;2022-12-07T00:14:36;22.53;;;16.70;;
11034;SDS011;5571;48.110;-1.706;2022-12-07T00:17:02;28.33;;;18.10;;
11034;SDS011;5571;48.110;-1.706;2022-12-07T00:19:27;27.27;;;17.97;;
11034;SDS011;5571;48.110;-1.706;2022-12-07T00:21:53;27.47;;;17.10;;
11034;SDS011;5571;48.110;-1.706;2022-12-07T00:24:19;22.97;;;15.47;;
11034;SDS011;5571;48.110;-1.706;2022-12-07T00:26:44;22.30;;;14.50;;
11034;SDS011;5571;48.110;-1.706;2022-12-07T00:29:17;19.83;;;13.67;;
11034;SDS011;5571;48.110;-1.706;2022-12-07T00:31:44;18.83;;;13.37;;
11034;SDS011;5571;48.110;-1.706;2022-12-07T00:34:14;19.10;;;13.50;;
11034;SDS011;5571;48.110;-1.706;2022-12-07T00:36:42;18.77;;;13.17;;
11034;SDS011;5571;48.110;-1.706;2022-12-07T00:39:08;18.13;;;13.27;;
11034;SDS011;5571;48.110;-1.706;2022-12-07T00:41:33;19.30;;;13.30;;
11034;SDS011;5571;48.110;-1.706;2022-12-07T00:43:59;22.00;;;13.50;;
11034;SDS011;5571;48.110;-1.706;2022-12-07T00:46:25;18.10;;;12.73;;
11034;SDS011;5571;48.110;-1.706;2022-12-07T00:48:51;17.57;;;13.53;;
11034;SDS011;5571;48.110;-1.706;2022-12-07T00:51:19;24.40;;;16.30;;
11034;SDS011;5571;48.110;-1.706;2022-12-07T00:53:47;24.27;;;17.80;;
11034;SDS011;5571;48.110;-1.706;2022-12-07T00:56:31;29.80;;;20.30;;
11034;SDS011;5571;48.110;-1.706;2022-12-07T00:58:58;43.07;;;30.10;;
11034;SDS011;5571;48.110;-1.706;2022-12-07T01:01:26;35.97;;;24.77;;
11034;SDS011;5571;48.110;-1.706;2022-12-07T01:03:53;34.73;;;24.33;;
11034;SDS011;5571;48.110;-1.706;2022-12-07T01:06:19;46.77;;;31.97;;
11034;SDS011;5571;48.110;-1.706;2022-12-07T01:08:46;40.53;;;26.33;;
11034;SDS011;5571;48.110;-1.706;2022-12-07T01:11:13;38.03;;;24.63;;
11034;SDS011;5571;48.110;-1.706;2022-12-07T01:13:41;24.70;;;14.67;;
11034;SDS011;5571;48.110;-1.706;2022-12-07T01:16:07;21.13;;;13.20;;
11034;SDS011;5571;48.110;-1.706;2022-12-07T01:18:35;20.43;;;11.90;;
11034;SDS011;5571;48.110;-1.706;2022-12-07T01:23:39;16.93;;;12.37;;
11034;SDS011;5571;48.110;-1.706;2022-12-07T01:26:06;18.80;;;12.40;;
11034;SDS011;5571;48.110;-1.706;2022-12-07T01:28:36;19.33;;;13.10;;
11034;SDS011;5571;48.110;-1.706;2022-12-07T01:31:03;19.30;;;12.63;;
11034;SDS011;5571;48.110;-1.706;2022-12-07T01:33:30;18.83;;;13.23;;
11034;SDS011;5571;48.110;-1.706;2022-12-07T01:36:04;20.47;;;13.67;;
11034;SDS011;5571;48.110;-1.706;2022-12-07T01:38:32;19.93;;;13.20;;
11034;SDS011;5571;48.110;-1.706;2022-12-07T01:40:58;20.67;;;12.67;;
11034;SDS011;5571;48.110;-1.706;2022-12-07T01:43:25;20.10;;;13.57;;
11034;SDS011;5571;48.110;-1.706;2022-12-07T01:45:53;22.33;;;13.87;;
11034;SDS011;5571;48.110;-1.706;2022-12-07T01:48:21;19.70;;;13.53;;
11034;SDS011;5571;48.110;-1.706;2022-12-07T01:50:51;22.77;;;14.30;;
11034;SDS011;5571;48.110;-1.706;2022-12-07T01:53:18;20.87;;;13.50;;
11034;SDS011;5571;48.110;-1.706;2022-12-07T01:55:47;19.03;;;13.93;;
11034;SDS011;5571;48.110;-1.706;2022-12-07T01:58:17;22.53;;;14.37;;
11034;SDS011;5571;48.110;-1.706;2022-12-07T02:00:42;22.90;;;13.83;;
11034;SDS011;5571;48.110;-1.706;2022-12-07T02:03:09;19.80;;;13.17;;
11034;SDS011;5571;48.110;-1.706;2022-12-07T02:05:41;22.90;;;14.20;;
11034;SDS011;5571;48.110;-1.706;2022-12-07T02:08:07;21.30;;;14.03;;
11034;SDS011;5571;48.110;-1.706;2022-12-07T02:10:35;21.57;;;13.30;;
11034;SDS011;5571;48.110;-1.706;2022-12-07T02:13:04;20.43;;;13.63;;
11034;SDS011;5571;48.110;-1.706;2022-12-07T02:15:38;20.63;;;13.73;;
11034;SDS011;5571;48.110;-1.706;2022-12-07T02:18:16;19.37;;;13.77;;
11034;SDS011;5571;48.110;-1.706;2022-12-07T02:21:03;21.33;;;14.10;;
11034;SDS011;5571;48.110;-1.706;2022-12-07T02:31:59;22.17;;;14.00;;
11034;SDS011;5571;48.110;-1.706;2022-12-07T02:34:43;21.50;;;13.67;;
11034;SDS011;5571;48.110;-1.706;2022-12-07T02:37:25;21.83;;;14.23;;
11034;SDS011;5571;48.110;-1.706;2022-12-07T02:39:54;20.70;;;14.57;;
11034;SDS011;5571;48.110;-1.706;2022-12-07T02:42:26;25.43;;;13.77;;
11034;SDS011;5571;48.110;-1.706;2022-12-07T02:44:59;23.37;;;14.60;;
11034;SDS011;5571;48.110;-1.706;2022-12-07T02:47:26;22.20;;;14.83;;
11034;SDS011;5571;48.110;-1.706;2022-12-07T02:49:53;22.67;;;14.63;;
11034;SDS011;5571;48.110;-1.706;2022-12-07T02:52:20;22.73;;;14.57;;
11034;SDS011;5571;48.110;-1.706;2022-12-07T02:54:45;23.30;;;14.53;;
11034;SDS011;5571;48.110;-1.706;2022-12-07T02:57:21;23.27;;;14.37;;
11034;SDS011;5571;48.110;-1.706;2022-12-07T03:00:07;21.77;;;13.73;;
11034;SDS011;5571;48.110;-1.706;2022-12-07T03:02:46;22.07;;;14.43;;
11034;SDS011;5571;48.110;-1.706;2022-12-07T03:10:29;22.13;;;14.23;;
11034;SDS011;5571;48.110;-1.706;2022-12-07T03:18:20;24.60;;;14.20;;
11034;SDS011;5571;48.110;-1.706;2022-12-07T03:20:49;21.00;;;13.87;;
11034;SDS011;5571;48.110;-1.706;2022-12-07T03:23:18;22.10;;;14.33;;
11034;SDS011;5571;48.110;-1.706;2022-12-07T03:25:46;20.53;;;14.70;;
11034;SDS011;5571;48.110;-1.706;2022-12-07T03:28:16;20.07;;;13.77;;
11034;SDS011;5571;48.110;-1.706;2022-12-07T03:30:49;20.90;;;13.93;;
11034;SDS011;5571;48.110;-1.706;2022-12-07T03:33:21;23.47;;;14.07;;
11034;SDS011;5571;48.110;-1.706;2022-12-07T03:36:08;20.93;;;13.93;;
11034;SDS011;5571;48.110;-1.706;2022-12-07T03:38:43;21.10;;;13.40;;
11034;SDS011;5571;48.110;-1.706;2022-12-07T03:41:21;25.33;;;13.90;;
11034;SDS011;5571;48.110;-1.706;2022-12-07T03:43:49;19.37;;;14.13;;
11034;SDS011;5571;48.110;-1.706;2022-12-07T03:51:21;21.30;;;14.07;;
11034;SDS011;5571;48.110;-1.706;2022-12-07T03:53:54;20.37;;;14.07;;
11034;SDS011;5571;48.110;-1.706;2022-12-07T03:56:23;24.47;;;14.50;;
11034;SDS011;5571;48.110;-1.706;2022-12-07T03:58:51;21.93;;;14.10;;
11034;SDS011;5571;48.110;-1.706;2022-12-07T04:01:17;22.00;;;14.43;;
11034;SDS011;5571;48.110;-1.706;2022-12-07T04:03:43;24.27;;;15.10;;
11034;SDS011;5571;48.110;-1.706;2022-12-07T04:06:09;24.80;;;16.03;;
11034;SDS011;5571;48.110;-1.706;2022-12-07T04:08:34;21.37;;;14.90;;
11034;SDS011;5571;48.110;-1.706;2022-12-07T04:11:00;22.23;;;14.27;;
11034;SDS011;5571;48.110;-1.706;2022-12-07T04:13:26;23.83;;;14.90;;
11034;SDS011;5571;48.110;-1.706;2022-12-07T04:15:52;29.67;;;15.60;;
11034;SDS011;5571;48.110;-1.706;2022-12-07T04:18:18;21.57;;;13.60;;
11034;SDS011;5571;48.110;-1.706;2022-12-07T04:20:43;22.43;;;14.63;;
11034;SDS011;5571;48.110;-1.706;2022-12-07T04:23:10;21.50;;;14.07;;
11034;SDS011;5571;48.110;-1.706;2022-12-07T04:25:36;21.77;;;14.80;;
11034;SDS011;5571;48.110;-1.706;2022-12-07T04:28:01;23.00;;;14.23;;
11034;SDS011;5571;48.110;-1.706;2022-12-07T04:30:27;19.30;;;13.63;;
11034;SDS011;5571;48.110;-1.706;2022-12-07T04:32:52;21.53;;;13.53;;
11034;SDS011;5571;48.110;-1.706;2022-12-07T04:35:18;20.93;;;13.73;;
11034;SDS011;5571;48.110;-1.706;2022-12-07T04:37:44;19.47;;;13.37;;
11034;SDS011;5571;48.110;-1.706;2022-12-07T04:40:10;20.03;;;12.93;;
11034;SDS011;5571;48.110;-1.706;2022-12-07T04:42:37;18.60;;;12.63;;
11034;SDS011;5571;48.110;-1.706;2022-12-07T04:45:03;19.37;;;13.57;;
11034;SDS011;5571;48.110;-1.706;2022-12-07T04:47:29;19.10;;;13.17;;
11034;SDS011;5571;48.110;-1.706;2022-12-07T04:49:55;19.73;;;13.37;;
11034;SDS011;5571;48.110;-1.706;2022-12-07T04:52:20;18.40;;;12.23;;
11034;SDS011;5571;48.110;-1.706;2022-12-07T04:54:46;19.57;;;13.07;;
11034;SDS011;5571;48.110;-1.706;2022-12-07T04:57:11;18.70;;;11.77;;
11034;SDS011;5571;48.110;-1.706;2022-12-07T04:59:37;18.83;;;12.63;;
11034;SDS011;5571;48.110;-1.706;2022-12-07T05:02:03;19.97;;;12.63;;
11034;SDS011;5571;48.110;-1.706;2022-12-07T05:04:28;18.10;;;11.87;;
11034;SDS011;5571;48.110;-1.706;2022-12-07T05:06:54;17.93;;;12.53;;
11034;SDS011;5571;48.110;-1.706;2022-12-07T05:09:19;18.20;;;11.93;;
11034;SDS011;5571;48.110;-1.706;2022-12-07T05:11:45;17.37;;;12.00;;
11034;SDS011;5571;48.110;-1.706;2022-12-07T05:16:42;18.57;;;12.37;;
11034;SDS011;5571;48.110;-1.706;2022-12-07T05:19:08;16.10;;;11.67;;
11034;SDS011;5571;48.110;-1.706;2022-12-07T05:21:35;17.07;;;12.27;;
11034;SDS011;5571;48.110;-1.706;2022-12-07T05:24:01;16.07;;;11.67;;
11034;SDS011;5571;48.110;-1.706;2022-12-07T05:26:28;17.50;;;11.73;;
11034;SDS011;5571;48.110;-1.706;2022-12-07T05:28:54;15.67;;;11.53;;
11034;SDS011;5571;48.110;-1.706;2022-12-07T05:31:21;17.73;;;11.73;;
11034;SDS011;5571;48.110;-1.706;2022-12-07T05:33:48;19.87;;;12.23;;
11034;SDS011;5571;48.110;-1.706;2022-12-07T05:36:13;17.00;;;10.67;;
11034;SDS011;5571;48.110;-1.706;2022-12-07T05:38:40;15.07;;;10.33;;
11034;SDS011;5571;48.110;-1.706;2022-12-07T05:41:06;16.83;;;10.47;;
11034;SDS011;5571;48.110;-1.706;2022-12-07T05:43:53;17.27;;;11.47;;
11034;SDS011;5571;48.110;-1.706;2022-12-07T05:46:18;15.17;;;10.83;;
11034;SDS011;5571;48.110;-1.706;2022-12-07T05:48:44;17.63;;;11.03;;
11034;SDS011;5571;48.110;-1.706;2022-12-07T05:51:09;15.40;;;11.13;;
11034;SDS011;5571;48.110;-1.706;2022-12-07T05:53:35;15.17;;;10.57;;
11034;SDS011;5571;48.110;-1.706;2022-12-07T05:56:01;18.40;;;11.23;;
11034;SDS011;5571;48.110;-1.706;2022-12-07T05:58:26;16.80;;;10.93;;
11034;SDS011;5571;48.110;-1.706;2022-12-07T06:01:11;17.43;;;11.03;;
11034;SDS011;5571;48.110;-1.706;2022-12-07T06:03:36;14.93;;;10.93;;
11034;SDS011;5571;48.110;-1.706;2022-12-07T06:06:02;15.63;;;11.27;;
11034;SDS011;5571;48.110;-1.706;2022-12-07T06:08:27;15.87;;;11.03;;
11034;SDS011;5571;48.110;-1.706;2022-12-07T06:10:53;17.37;;;11.57;;
11034;SDS011;5571;48.110;-1.706;2022-12-07T06:13:39;17.20;;;10.83;;
11034;SDS011;5571;48.110;-1.706;2022-12-07T06:16:04;18.63;;;10.97;;
11034;SDS011;5571;48.110;-1.706;2022-12-07T06:18:30;14.00;;;10.57;;
11034;SDS011;5571;48.110;-1.706;2022-12-07T06:20:56;14.60;;;10.70;;
11034;SDS011;5571;48.110;-1.706;2022-12-07T06:23:22;14.97;;;10.37;;
11034;SDS011;5571;48.110;-1.706;2022-12-07T06:25:47;14.67;;;10.30;;
11034;SDS011;5571;48.110;-1.706;2022-12-07T06:28:13;14.77;;;10.33;;
11034;SDS011;5571;48.110;-1.706;2022-12-07T06:30:38;16.47;;;10.57;;
11034;SDS011;5571;48.110;-1.706;2022-12-07T06:33:04;14.47;;;10.83;;
11034;SDS011;5571;48.110;-1.706;2022-12-07T06:35:31;13.93;;;9.87;;
11034;SDS011;5571;48.110;-1.706;2022-12-07T06:37:58;14.93;;;10.77;;
11034;SDS011;5571;48.110;-1.706;2022-12-07T06:40:23;14.93;;;10.40;;
11034;SDS011;5571;48.110;-1.706;2022-12-07T06:42:49;13.53;;;10.13;;
11034;SDS011;5571;48.110;-1.706;2022-12-07T06:45:15;15.60;;;10.90;;
11034;SDS011;5571;48.110;-1.706;2022-12-07T06:47:40;14.10;;;10.60;;
11034;SDS011;5571;48.110;-1.706;2022-12-07T06:50:06;15.87;;;10.27;;
11034;SDS011;5571;48.110;-1.706;2022-12-07T06:52:32;14.93;;;10.50;;
11034;SDS011;5571;48.110;-1.706;2022-12-07T06:54:58;13.53;;;9.80;;
11034;SDS011;5571;48.110;-1.706;2022-12-07T06:57:24;15.80;;;10.50;;
11034;SDS011;5571;48.110;-1.706;2022-12-07T06:59:50;17.43;;;10.93;;
11034;SDS011;5571;48.110;-1.706;2022-12-07T07:02:16;13.90;;;9.97;;
11034;SDS011;5571;48.110;-1.706;2022-12-07T07:04:42;12.20;;;9.50;;
11034;SDS011;5571;48.110;-1.706;2022-12-07T07:07:07;11.67;;;8.90;;
11034;SDS011;5571;48.110;-1.706;2022-12-07T07:09:33;10.83;;;9.03;;
11034;SDS011;5571;48.110;-1.706;2022-12-07T07:11:59;12.67;;;8.90;;
11034;SDS011;5571;48.110;-1.706;2022-12-07T07:14:24;13.23;;;9.60;;
11034;SDS011;5571;48.110;-1.706;2022-12-07T07:16:50;14.30;;;9.70;;
11034;SDS011;5571;48.110;-1.706;2022-12-07T07:19:16;17.17;;;10.40;;
11034;SDS011;5571;48.110;-1.706;2022-12-07T07:21:41;15.27;;;10.70;;
11034;SDS011;5571;48.110;-1.706;2022-12-07T07:24:07;15.60;;;10.77;;
11034;SDS011;5571;48.110;-1.706;2022-12-07T07:26:33;21.20;;;13.97;;
11034;SDS011;5571;48.110;-1.706;2022-12-07T07:28:58;19.83;;;13.57;;
11034;SDS011;5571;48.110;-1.706;2022-12-07T07:31:24;18.73;;;13.00;;
11034;SDS011;5571;48.110;-1.706;2022-12-07T07:33:50;20.63;;;13.10;;
11034;SDS011;5571;48.110;-1.706;2022-12-07T07:36:15;20.53;;;12.70;;
11034;SDS011;5571;48.110;-1.706;2022-12-07T07:38:41;23.13;;;11.77;;
11034;SDS011;5571;48.110;-1.706;2022-12-07T07:41:07;16.80;;;11.40;;
11034;SDS011;5571;48.110;-1.706;2022-12-07T07:43:32;14.63;;;10.60;;
11034;SDS011;5571;48.110;-1.706;2022-12-07T07:45:58;16.13;;;10.20;;
11034;SDS011;5571;48.110;-1.706;2022-12-07T07:48:23;14.70;;;10.10;;
11034;SDS011;5571;48.110;-1.706;2022-12-07T07:50:50;13.83;;;10.40;;
11034;SDS011;5571;48.110;-1.706;2022-12-07T07:53:16;14.10;;;10.17;;
11034;SDS011;5571;48.110;-1.706;2022-12-07T07:55:49;15.23;;;10.40;;
11034;SDS011;5571;48.110;-1.706;2022-12-07T07:58:16;14.07;;;9.87;;
11034;SDS011;5571;48.110;-1.706;2022-12-07T08:00:41;15.10;;;10.37;;
11034;SDS011;5571;48.110;-1.706;2022-12-07T08:03:07;13.53;;;10.43;;
11034;SDS011;5571;48.110;-1.706;2022-12-07T08:05:33;15.07;;;10.37;;
11034;SDS011;5571;48.110;-1.706;2022-12-07T08:07:58;15.17;;;10.30;;
11034;SDS011;5571;48.110;-1.706;2022-12-07T08:10:24;16.00;;;10.37;;
11034;SDS011;5571;48.110;-1.706;2022-12-07T08:12:50;18.77;;;10.53;;
11034;SDS011;5571;48.110;-1.706;2022-12-07T08:15:36;16.33;;;9.73;;
11034;SDS011;5571;48.110;-1.706;2022-12-07T08:18:03;15.03;;;9.97;;
11034;SDS011;5571;48.110;-1.706;2022-12-07T08:20:32;13.67;;;9.37;;
11034;SDS011;5571;48.110;-1.706;2022-12-07T08:22:58;13.32;;;10.05;;
11034;SDS011;5571;48.110;-1.706;2022-12-07T08:25:24;13.00;;;10.13;;
11034;SDS011;5571;48.110;-1.706;2022-12-07T08:27:51;13.70;;;9.77;;
11034;SDS011;5571;48.110;-1.706;2022-12-07T08:30:17;17.00;;;9.57;;
11034;SDS011;5571;48.110;-1.706;2022-12-07T08:32:46;14.40;;;9.37;;
11034;SDS011;5571;48.110;-1.706;2022-12-07T08:35:12;14.80;;;9.47;;
11034;SDS011;5571;48.110;-1.706;2022-12-07T08:37:39;12.70;;;9.10;;
11034;SDS011;5571;48.110;-1.706;2022-12-07T08:40:05;11.20;;;8.97;;
11034;SDS011;5571;48.110;-1.706;2022-12-07T08:42:32;17.00;;;8.47;;
11034;SDS011;5571;48.110;-1.706;2022-12-07T08:45:05;11.80;;;8.80;;
11034;SDS011;5571;48.110;-1.706;2022-12-07T08:47:40;16.03;;;11.57;;
11034;SDS011;5571;48.110;-1.706;2022-12-07T08:50:09;19.57;;;10.63;;
11034;SDS011;5571;48.110;-1.706;2022-12-07T08:52:36;15.13;;;11.17;;
11034;SDS011;5571;48.110;-1.706;2022-12-07T08:55:03;13.90;;;9.50;;
11034;SDS011;5571;48.110;-1.706;2022-12-07T08:57:29;13.07;;;9.90;;
11034;SDS011;5571;48.110;-1.706;2022-12-07T08:59:58;15.27;;;9.73;;
11034;SDS011;5571;48.110;-1.706;2022-12-07T09:02:24;14.13;;;10.17;;
11034;SDS011;5571;48.110;-1.706;2022-12-07T09:04:49;17.10;;;10.40;;
11034;SDS011;5571;48.110;-1.706;2022-12-07T09:07:15;16.43;;;10.67;;
11034;SDS011;5571;48.110;-1.706;2022-12-07T09:09:41;14.70;;;10.37;;
11034;SDS011;5571;48.110;-1.706;2022-12-07T09:12:07;15.97;;;10.63;;
11034;SDS011;5571;48.110;-1.706;2022-12-07T09:14:33;16.27;;;9.80;;
11034;SDS011;5571;48.110;-1.706;2022-12-07T09:17:08;16.17;;;10.00;;
11034;SDS011;5571;48.110;-1.706;2022-12-07T09:19:36;16.50;;;10.43;;
11034;SDS011;5571;48.110;-1.706;2022-12-07T09:22:02;12.83;;;10.37;;
11034;SDS011;5571;48.110;-1.706;2022-12-07T09:24:29;14.87;;;10.30;;
11034;SDS011;5571;48.110;-1.706;2022-12-07T09:26:56;15.70;;;10.17;;
11034;SDS011;5571;48.110;-1.706;2022-12-07T09:29:22;18.47;;;11.30;;
11034;SDS011;5571;48.110;-1.706;2022-12-07T09:31:47;17.90;;;11.40;;
11034;SDS011;5571;48.110;-1.706;2022-12-07T09:34:13;17.13;;;10.57;;
11034;SDS011;5571;48.110;-1.706;2022-12-07T09:36:39;14.27;;;9.83;;
11034;SDS011;5571;48.110;-1.706;2022-12-07T09:39:04;12.43;;;9.80;;
11034;SDS011;5571;48.110;-1.706;2022-12-07T09:41:30;15.07;;;9.93;;
11034;SDS011;5571;48.110;-1.706;2022-12-07T09:44:04;15.50;;;9.50;;
11034;SDS011;5571;48.110;-1.706;2022-12-07T09:46:36;18.47;;;9.53;;
11034;SDS011;5571;48.110;-1.706;2022-12-07T09:49:04;14.97;;;10.63;;
11034;SDS011;5571;48.110;-1.706;2022-12-07T09:51:33;15.43;;;10.47;;
11034;SDS011;5571;48.110;-1.706;2022-12-07T09:53:59;15.50;;;10.97;;
11034;SDS011;5571;48.110;-1.706;2022-12-07T09:56:25;15.83;;;10.17;;
11034;SDS011;5571;48.110;-1.706;2022-12-07T09:59:12;15.23;;;10.67;;
11034;SDS011;5571;48.110;-1.706;2022-12-07T10:01:43;14.43;;;10.83;;
11034;SDS011;5571;48.110;-1.706;2022-12-07T10:06:39;19.83;;;11.13;;
11034;SDS011;5571;48.110;-1.706;2022-12-07T10:09:11;15.13;;;10.43;;
11034;SDS011;5571;48.110;-1.706;2022-12-07T10:11:59;12.67;;;9.80;;
11034;SDS011;5571;48.110;-1.706;2022-12-07T10:14:30;16.77;;;11.27;;
11034;SDS011;5571;48.110;-1.706;2022-12-07T10:16:57;15.30;;;11.73;;
11034;SDS011;5571;48.110;-1.706;2022-12-07T10:19:27;19.30;;;13.23;;
11034;SDS011;5571;48.110;-1.706;2022-12-07T10:22:07;17.27;;;11.50;;
11034;SDS011;5571;48.110;-1.706;2022-12-07T10:24:36;17.70;;;12.40;;
11034;SDS011;5571;48.110;-1.706;2022-12-07T10:27:04;23.17;;;13.10;;
11034;SDS011;5571;48.110;-1.706;2022-12-07T10:29:31;17.87;;;12.63;;
11034;SDS011;5571;48.110;-1.706;2022-12-07T10:39:52;16.23;;;11.17;;
11034;SDS011;5571;48.110;-1.706;2022-12-07T10:42:24;16.80;;;11.40;;
11034;SDS011;5571;48.110;-1.706;2022-12-07T10:45:08;18.07;;;11.50;;
11034;SDS011;5571;48.110;-1.706;2022-12-07T10:47:38;22.63;;;11.97;;
11034;SDS011;5571;48.110;-1.706;2022-12-07T10:50:31;17.30;;;11.50;;
11034;SDS011;5571;48.110;-1.706;2022-12-07T10:53:06;18.60;;;12.87;;
11034;SDS011;5571;48.110;-1.706;2022-12-07T10:55:59;21.53;;;13.13;;
11034;SDS011;5571;48.110;-1.706;2022-12-07T11:06:33;19.90;;;11.73;;
11034;SDS011;5571;48.110;-1.706;2022-12-07T11:15:40;14.83;;;10.67;;
11034;SDS011;5571;48.110;-1.706;2022-12-07T11:23:29;14.87;;;10.80;;
11034;SDS011;5571;48.110;-1.706;2022-12-07T11:31:52;16.87;;;12.30;;
11034;SDS011;5571;48.110;-1.706;2022-12-07T11:37:13;16.27;;;11.90;;
11034;SDS011;5571;48.110;-1.706;2022-12-07T11:39:51;17.43;;;12.23;;
11034;SDS011;5571;48.110;-1.706;2022-12-07T11:42:41;17.60;;;12.50;;
11034;SDS011;5571;48.110;-1.706;2022-12-07T11:45:15;22.47;;;13.07;;
11034;SDS011;5571;48.110;-1.706;2022-12-07T11:48:08;20.43;;;12.37;;
11034;SDS011;5571;48.110;-1.706;2022-12-07T11:50:41;16.93;;;10.13;;
11034;SDS011;5571;48.110;-1.706;2022-12-07T11:53:14;17.00;;;11.30;;
11034;SDS011;5571;48.110;-1.706;2022-12-07T11:55:59;15.67;;;10.83;;
11034;SDS011;5571;48.110;-1.706;2022-12-07T12:03:45;11.67;;;9.20;;
11034;SDS011;5571;48.110;-1.706;2022-12-07T12:06:14;11.53;;;8.77;;
11034;SDS011;5571;48.110;-1.706;2022-12-07T12:08:42;13.43;;;9.67;;
11034;SDS011;5571;48.110;-1.706;2022-12-07T12:13:57;15.73;;;11.30;;
11034;SDS011;5571;48.110;-1.706;2022-12-07T12:16:37;13.63;;;11.60;;
11034;SDS011;5571;48.110;-1.706;2022-12-07T12:22:02;23.83;;;15.47;;
11034;SDS011;5571;48.110;-1.706;2022-12-07T12:24:42;21.17;;;14.70;;
11034;SDS011;5571;48.110;-1.706;2022-12-07T12:27:16;25.33;;;15.13;;
11034;SDS011;5571;48.110;-1.706;2022-12-07T12:29:56;20.50;;;15.43;;
11034;SDS011;5571;48.110;-1.706;2022-12-07T12:32:42;22.00;;;15.17;;
11034;SDS011;5571;48.110;-1.706;2022-12-07T12:40:58;24.30;;;14.70;;
11034;SDS011;5571;48.110;-1.706;2022-12-07T12:49:30;26.40;;;15.97;;
11034;SDS011;5571;48.110;-1.706;2022-12-07T12:54:57;29.53;;;18.63;;
11034;SDS011;5571;48.110;-1.706;2022-12-07T12:57:37;27.80;;;18.13;;
11034;SDS011;5571;48.110;-1.706;2022-12-07T13:00:14;27.57;;;17.87;;
11034;SDS011;5571;48.110;-1.706;2022-12-07T13:02:52;32.10;;;19.80;;
11034;SDS011;5571;48.110;-1.706;2022-12-07T13:05:21;32.40;;;19.43;;
11034;SDS011;5571;48.110;-1.706;2022-12-07T13:07:50;29.10;;;19.27;;
11034;SDS011;5571;48.110;-1.706;2022-12-07T13:10:31;27.70;;;19.07;;
11034;SDS011;5571;48.110;-1.706;2022-12-07T13:18:48;27.73;;;18.87;;
11034;SDS011;5571;48.110;-1.706;2022-12-07T13:20:58;27.10;;;17.93;;
11034;SDS011;5571;48.110;-1.706;2022-12-07T13:28:47;23.50;;;16.27;;
11034;SDS011;5571;48.110;-1.706;2022-12-07T13:34:01;27.73;;;16.70;;
11034;SDS011;5571;48.110;-1.706;2022-12-07T13:36:32;31.07;;;16.03;;
11034;SDS011;5571;48.110;-1.706;2022-12-07T13:39:16;21.17;;;13.77;;
11034;SDS011;5571;48.110;-1.706;2022-12-07T13:41:44;20.10;;;14.50;;
11034;SDS011;5571;48.110;-1.706;2022-12-07T13:44:15;20.20;;;13.27;;
11034;SDS011;5571;48.110;-1.706;2022-12-07T13:49:25;17.80;;;12.20;;
11034;SDS011;5571;48.110;-1.706;2022-12-07T13:51:53;17.90;;;12.23;;
11034;SDS011;5571;48.110;-1.706;2022-12-07T13:54:20;19.40;;;13.60;;
11034;SDS011;5571;48.110;-1.706;2022-12-07T13:56:48;19.57;;;12.40;;
11034;SDS011;5571;48.110;-1.706;2022-12-07T13:59:18;19.87;;;12.93;;
11034;SDS011;5571;48.110;-1.706;2022-12-07T14:01:49;21.40;;;12.57;;
11034;SDS011;5571;48.110;-1.706;2022-12-07T14:04:35;14.87;;;11.53;;
11034;SDS011;5571;48.110;-1.706;2022-12-07T14:10:32;14.83;;;11.17;;
11034;SDS011;5571;48.110;-1.706;2022-12-07T14:15:56;14.77;;;11.10;;
11034;SDS011;5571;48.110;-1.706;2022-12-07T14:21:04;16.43;;;9.73;;
11034;SDS011;5571;48.110;-1.706;2022-12-07T14:23:39;12.67;;;9.63;;
11034;SDS011;5571;48.110;-1.706;2022-12-07T14:26:09;13.13;;;9.67;;
11034;SDS011;5571;48.110;-1.706;2022-12-07T14:28:38;11.00;;;9.70;;
11034;SDS011;5571;48.110;-1.706;2022-12-07T14:31:15;13.50;;;9.37;;
11034;SDS011;5571;48.110;-1.706;2022-12-07T14:33:48;13.07;;;9.30;;
11034;SDS011;5571;48.110;-1.706;2022-12-07T14:36:15;12.83;;;9.70;;
11034;SDS011;5571;48.110;-1.706;2022-12-07T14:38:41;14.43;;;9.47;;
11034;SDS011;5571;48.110;-1.706;2022-12-07T14:41:10;14.40;;;9.70;;
11034;SDS011;5571;48.110;-1.706;2022-12-07T14:43:58;13.03;;;9.90;;
11034;SDS011;5571;48.110;-1.706;2022-12-07T14:46:25;14.80;;;10.13;;
11034;SDS011;5571;48.110;-1.706;2022-12-07T14:48:50;12.97;;;9.73;;
11034;SDS011;5571;48.110;-1.706;2022-12-07T14:51:16;16.60;;;9.50;;
11034;SDS011;5571;48.110;-1.706;2022-12-07T14:53:48;13.90;;;9.70;;
11034;SDS011;5571;48.110;-1.706;2022-12-07T14:56:16;15.47;;;9.63;;
11034;SDS011;5571;48.110;-1.706;2022-12-07T14:58:42;12.67;;;9.70;;
11034;SDS011;5571;48.110;-1.706;2022-12-07T15:01:08;11.93;;;9.03;;
11034;SDS011;5571;48.110;-1.706;2022-12-07T15:03:33;14.83;;;10.57;;
11034;SDS011;5571;48.110;-1.706;2022-12-07T15:05:59;13.13;;;9.20;;
11034;SDS011;5571;48.110;-1.706;2022-12-07T15:08:25;15.20;;;10.10;;
11034;SDS011;5571;48.110;-1.706;2022-12-07T15:10:51;18.87;;;12.23;;
11034;SDS011;5571;48.110;-1.706;2022-12-07T15:13:17;22.77;;;13.00;;
11034;SDS011;5571;48.110;-1.706;2022-12-07T15:16:01;23.43;;;12.77;;
11034;SDS011;5571;48.110;-1.706;2022-12-07T15:18:27;21.40;;;13.63;;
11034;SDS011;5571;48.110;-1.706;2022-12-07T15:20:53;26.70;;;14.50;;
11034;SDS011;5571;48.110;-1.706;2022-12-07T15:23:19;18.43;;;13.70;;
11034;SDS011;5571;48.110;-1.706;2022-12-07T15:25:46;18.00;;;12.77;;
11034;SDS011;5571;48.110;-1.706;2022-12-07T15:28:13;21.33;;;13.37;;
11034;SDS011;5571;48.110;-1.706;2022-12-07T15:30:42;19.17;;;12.50;;
11034;SDS011;5571;48.110;-1.706;2022-12-07T15:33:09;20.80;;;13.43;;
11034;SDS011;5571;48.110;-1.706;2022-12-07T15:35:42;22.77;;;14.17;;
11034;SDS011;5571;48.110;-1.706;2022-12-07T15:38:09;25.30;;;13.53;;
11034;SDS011;5571;48.110;-1.706;2022-12-07T15:40:34;20.80;;;13.07;;
11034;SDS011;5571;48.110;-1.706;2022-12-07T15:43:01;20.73;;;12.50;;
11034;SDS011;5571;48.110;-1.706;2022-12-07T15:45:27;21.80;;;13.37;;
11034;SDS011;5571;48.110;-1.706;2022-12-07T15:47:52;19.77;;;13.07;;
11034;SDS011;5571;48.110;-1.706;2022-12-07T15:50:20;21.73;;;13.23;;
11034;SDS011;5571;48.110;-1.706;2022-12-07T15:52:46;19.07;;;13.93;;
11034;SDS011;5571;48.110;-1.706;2022-12-07T15:55:13;29.17;;;15.03;;
11034;SDS011;5571;48.110;-1.706;2022-12-07T15:57:38;31.17;;;16.07;;
11034;SDS011;5571;48.110;-1.706;2022-12-07T16:00:05;32.13;;;15.73;;
11034;SDS011;5571;48.110;-1.706;2022-12-07T16:02:32;31.00;;;17.47;;
11034;SDS011;5571;48.110;-1.706;2022-12-07T16:04:58;35.73;;;16.80;;
11034;SDS011;5571;48.110;-1.706;2022-12-07T16:07:23;35.20;;;16.93;;
11034;SDS011;5571;48.110;-1.706;2022-12-07T16:09:49;26.03;;;16.27;;
11034;SDS011;5571;48.110;-1.706;2022-12-07T16:12:14;28.40;;;17.23;;
11034;SDS011;5571;48.110;-1.706;2022-12-07T16:14:41;29.20;;;16.97;;
11034;SDS011;5571;48.110;-1.706;2022-12-07T16:17:07;24.07;;;15.93;;
11034;SDS011;5571;48.110;-1.706;2022-12-07T16:19:34;31.43;;;17.10;;
11034;SDS011;5571;48.110;-1.706;2022-12-07T16:22:00;28.43;;;16.80;;
11034;SDS011;5571;48.110;-1.706;2022-12-07T16:24:26;29.60;;;16.53;;
11034;SDS011;5571;48.110;-1.706;2022-12-07T16:26:52;39.60;;;18.00;;
11034;SDS011;5571;48.110;-1.706;2022-12-07T16:29:18;30.27;;;16.87;;
11034;SDS011;5571;48.110;-1.706;2022-12-07T16:31:45;36.40;;;17.00;;